ΕΜΥ, Εθνική Μετεωρολογική Υπηρεσία - Δελτία Καιρού, Προγνώσεις

ΑΕΡΟΝΑΥΤΙΛΙΑ

GREEK AIRPORTS CODES

TAF LGKF 261400Z 2615/2624 36008KT 9999 FEW025 BECMG 2620/2622 06012KT=

EUROPEAN AIRPORTS CODES

LKPR 261530Z 27010KT CAVOK 35/15 Q1021 NOSIG=